sensor_id;sensor_type;location;lat;lon;timestamp;P1;durP1;ratioP1;P2;durP2;ratioP2
53010;SDS011;42803;55.762;38.084;2023-02-24T00:00:14;11.80;;;5.22;;
53010;SDS011;42803;55.762;38.084;2023-02-24T00:03:00;13.77;;;5.70;;
53010;SDS011;42803;55.762;38.084;2023-02-24T00:05:33;16.58;;;6.28;;
53010;SDS011;42803;55.762;38.084;2023-02-24T00:08:03;16.25;;;6.53;;
53010;SDS011;42803;55.762;38.084;2023-02-24T00:13:04;16.00;;;6.22;;
53010;SDS011;42803;55.762;38.084;2023-02-24T00:15:34;16.77;;;6.15;;
53010;SDS011;42803;55.762;38.084;2023-02-24T00:18:05;16.38;;;7.30;;
53010;SDS011;42803;55.762;38.084;2023-02-24T00:20:34;20.38;;;7.45;;
53010;SDS011;42803;55.762;38.084;2023-02-24T00:23:03;15.45;;;6.47;;
53010;SDS011;42803;55.762;38.084;2023-02-24T00:25:32;18.75;;;6.38;;
53010;SDS011;42803;55.762;38.084;2023-02-24T00:28:01;12.77;;;5.57;;
53010;SDS011;42803;55.762;38.084;2023-02-24T00:30:30;11.40;;;5.50;;
53010;SDS011;42803;55.762;38.084;2023-02-24T00:32:59;11.77;;;5.15;;
53010;SDS011;42803;55.762;38.084;2023-02-24T00:35:31;13.82;;;6.10;;
53010;SDS011;42803;55.762;38.084;2023-02-24T00:38:01;11.93;;;4.97;;
53010;SDS011;42803;55.762;38.084;2023-02-24T00:40:30;12.73;;;5.85;;
53010;SDS011;42803;55.762;38.084;2023-02-24T00:43:03;10.88;;;5.28;;
53010;SDS011;42803;55.762;38.084;2023-02-24T00:45:34;13.32;;;4.97;;
53010;SDS011;42803;55.762;38.084;2023-02-24T00:48:05;11.35;;;5.55;;
53010;SDS011;42803;55.762;38.084;2023-02-24T00:50:38;13.07;;;4.82;;
53010;SDS011;42803;55.762;38.084;2023-02-24T00:53:08;6.65;;;4.32;;
53010;SDS011;42803;55.762;38.084;2023-02-24T00:55:37;10.43;;;4.97;;
53010;SDS011;42803;55.762;38.084;2023-02-24T00:58:06;11.75;;;5.15;;
53010;SDS011;42803;55.762;38.084;2023-02-24T01:00:35;13.63;;;6.40;;
53010;SDS011;42803;55.762;38.084;2023-02-24T01:03:05;13.45;;;5.88;;
53010;SDS011;42803;55.762;38.084;2023-02-24T01:05:35;18.23;;;7.20;;
53010;SDS011;42803;55.762;38.084;2023-02-24T01:08:06;15.45;;;6.18;;
53010;SDS011;42803;55.762;38.084;2023-02-24T01:10:35;15.10;;;6.05;;
53010;SDS011;42803;55.762;38.084;2023-02-24T01:13:04;13.68;;;6.13;;
53010;SDS011;42803;55.762;38.084;2023-02-24T01:15:34;12.05;;;5.22;;
53010;SDS011;42803;55.762;38.084;2023-02-24T01:18:03;12.05;;;5.68;;
53010;SDS011;42803;55.762;38.084;2023-02-24T01:20:32;15.63;;;6.45;;
53010;SDS011;42803;55.762;38.084;2023-02-24T01:23:07;16.85;;;5.95;;
53010;SDS011;42803;55.762;38.084;2023-02-24T01:25:36;12.30;;;5.68;;
53010;SDS011;42803;55.762;38.084;2023-02-24T01:28:05;14.77;;;6.18;;
53010;SDS011;42803;55.762;38.084;2023-02-24T01:30:37;11.25;;;5.10;;
53010;SDS011;42803;55.762;38.084;2023-02-24T01:33:07;13.93;;;5.80;;
53010;SDS011;42803;55.762;38.084;2023-02-24T01:35:40;11.20;;;5.07;;
53010;SDS011;42803;55.762;38.084;2023-02-24T01:38:11;14.43;;;6.20;;
53010;SDS011;42803;55.762;38.084;2023-02-24T01:40:40;15.13;;;5.88;;
53010;SDS011;42803;55.762;38.084;2023-02-24T01:43:09;16.55;;;5.45;;
53010;SDS011;42803;55.762;38.084;2023-02-24T01:45:39;10.02;;;5.10;;
53010;SDS011;42803;55.762;38.084;2023-02-24T01:48:08;13.68;;;7.07;;
53010;SDS011;42803;55.762;38.084;2023-02-24T01:50:39;16.52;;;6.68;;
53010;SDS011;42803;55.762;38.084;2023-02-24T01:53:09;15.10;;;5.85;;
53010;SDS011;42803;55.762;38.084;2023-02-24T01:55:40;12.65;;;5.63;;
53010;SDS011;42803;55.762;38.084;2023-02-24T01:58:15;15.88;;;6.35;;
53010;SDS011;42803;55.762;38.084;2023-02-24T02:00:49;16.38;;;7.72;;
53010;SDS011;42803;55.762;38.084;2023-02-24T02:03:22;13.48;;;7.35;;
53010;SDS011;42803;55.762;38.084;2023-02-24T02:05:58;12.63;;;6.40;;
53010;SDS011;42803;55.762;38.084;2023-02-24T02:08:33;13.90;;;6.28;;
53010;SDS011;42803;55.762;38.084;2023-02-24T02:11:07;16.77;;;6.85;;
53010;SDS011;42803;55.762;38.084;2023-02-24T02:13:38;15.23;;;5.22;;
53010;SDS011;42803;55.762;38.084;2023-02-24T02:16:13;16.25;;;6.47;;
53010;SDS011;42803;55.762;38.084;2023-02-24T02:18:58;15.38;;;6.75;;
53010;SDS011;42803;55.762;38.084;2023-02-24T02:24:41;17.23;;;7.00;;
53010;SDS011;42803;55.762;38.084;2023-02-24T02:36:32;10.40;;;4.75;;
53010;SDS011;42803;55.762;38.084;2023-02-24T02:39:11;13.27;;;5.22;;
53010;SDS011;42803;55.762;38.084;2023-02-24T02:41:48;12.27;;;5.07;;
53010;SDS011;42803;55.762;38.084;2023-02-24T02:44:22;13.02;;;5.53;;
53010;SDS011;42803;55.762;38.084;2023-02-24T02:47:05;12.20;;;4.95;;
53010;SDS011;42803;55.762;38.084;2023-02-24T02:49:41;9.30;;;4.70;;
53010;SDS011;42803;55.762;38.084;2023-02-24T02:52:13;13.23;;;5.43;;
53010;SDS011;42803;55.762;38.084;2023-02-24T02:54:47;13.45;;;5.45;;
53010;SDS011;42803;55.762;38.084;2023-02-24T02:57:22;12.75;;;5.20;;
53010;SDS011;42803;55.762;38.084;2023-02-24T02:59:54;11.32;;;4.03;;
53010;SDS011;42803;55.762;38.084;2023-02-24T03:02:27;11.70;;;4.70;;
53010;SDS011;42803;55.762;38.084;2023-02-24T03:05:08;15.63;;;5.63;;
53010;SDS011;42803;55.762;38.084;2023-02-24T03:07:40;15.43;;;5.43;;
53010;SDS011;42803;55.762;38.084;2023-02-24T03:10:15;8.82;;;4.95;;
53010;SDS011;42803;55.762;38.084;2023-02-24T03:12:49;17.52;;;5.65;;
53010;SDS011;42803;55.762;38.084;2023-02-24T03:15:23;10.23;;;3.73;;
53010;SDS011;42803;55.762;38.084;2023-02-24T03:17:56;12.25;;;5.05;;
53010;SDS011;42803;55.762;38.084;2023-02-24T03:20:32;7.43;;;3.58;;
53010;SDS011;42803;55.762;38.084;2023-02-24T03:23:06;15.90;;;5.20;;
53010;SDS011;42803;55.762;38.084;2023-02-24T03:25:44;12.88;;;6.10;;
53010;SDS011;42803;55.762;38.084;2023-02-24T03:28:29;19.63;;;7.77;;
53010;SDS011;42803;55.762;38.084;2023-02-24T03:31:06;13.18;;;5.68;;
53010;SDS011;42803;55.762;38.084;2023-02-24T03:33:38;12.95;;;6.05;;
53010;SDS011;42803;55.762;38.084;2023-02-24T03:36:16;14.60;;;5.90;;
53010;SDS011;42803;55.762;38.084;2023-02-24T03:38:45;10.82;;;5.90;;
53010;SDS011;42803;55.762;38.084;2023-02-24T03:41:17;10.68;;;5.25;;
53010;SDS011;42803;55.762;38.084;2023-02-24T03:43:47;16.13;;;6.72;;
53010;SDS011;42803;55.762;38.084;2023-02-24T03:46:18;10.55;;;5.60;;
53010;SDS011;42803;55.762;38.084;2023-02-24T03:48:49;11.43;;;6.03;;
53010;SDS011;42803;55.762;38.084;2023-02-24T03:51:25;7.38;;;4.38;;
53010;SDS011;42803;55.762;38.084;2023-02-24T03:53:57;10.85;;;5.15;;
53010;SDS011;42803;55.762;38.084;2023-02-24T03:56:37;9.85;;;4.18;;
53010;SDS011;42803;55.762;38.084;2023-02-24T03:59:18;7.68;;;4.35;;
53010;SDS011;42803;55.762;38.084;2023-02-24T04:01:58;9.05;;;4.75;;
53010;SDS011;42803;55.762;38.084;2023-02-24T04:04:41;14.90;;;4.85;;
53010;SDS011;42803;55.762;38.084;2023-02-24T04:07:24;11.63;;;4.60;;
53010;SDS011;42803;55.762;38.084;2023-02-24T04:10:06;12.87;;;6.57;;
53010;SDS011;42803;55.762;38.084;2023-02-24T04:12:43;14.57;;;5.47;;
53010;SDS011;42803;55.762;38.084;2023-02-24T04:15:19;12.55;;;5.68;;
53010;SDS011;42803;55.762;38.084;2023-02-24T04:17:52;11.75;;;4.70;;
53010;SDS011;42803;55.762;38.084;2023-02-24T04:20:29;15.57;;;5.35;;
53010;SDS011;42803;55.762;38.084;2023-02-24T04:23:05;8.23;;;4.65;;
53010;SDS011;42803;55.762;38.084;2023-02-24T04:25:39;8.18;;;4.53;;
53010;SDS011;42803;55.762;38.084;2023-02-24T04:28:12;12.70;;;4.55;;
53010;SDS011;42803;55.762;38.084;2023-02-24T04:30:45;10.85;;;5.20;;
53010;SDS011;42803;55.762;38.084;2023-02-24T04:33:18;10.77;;;5.15;;
53010;SDS011;42803;55.762;38.084;2023-02-24T04:35:49;10.27;;;4.22;;
53010;SDS011;42803;55.762;38.084;2023-02-24T04:38:22;8.25;;;4.32;;
53010;SDS011;42803;55.762;38.084;2023-02-24T04:40:52;9.32;;;5.10;;
53010;SDS011;42803;55.762;38.084;2023-02-24T04:43:21;12.27;;;5.47;;
53010;SDS011;42803;55.762;38.084;2023-02-24T04:45:50;9.80;;;5.10;;
53010;SDS011;42803;55.762;38.084;2023-02-24T04:48:19;17.15;;;6.35;;
53010;SDS011;42803;55.762;38.084;2023-02-24T04:50:48;14.88;;;5.45;;
53010;SDS011;42803;55.762;38.084;2023-02-24T04:53:22;13.13;;;5.40;;
53010;SDS011;42803;55.762;38.084;2023-02-24T04:55:53;13.02;;;4.55;;
53010;SDS011;42803;55.762;38.084;2023-02-24T04:58:23;12.30;;;5.30;;
53010;SDS011;42803;55.762;38.084;2023-02-24T05:00:54;10.23;;;4.82;;
53010;SDS011;42803;55.762;38.084;2023-02-24T05:03:24;7.10;;;3.90;;
53010;SDS011;42803;55.762;38.084;2023-02-24T05:05:55;7.72;;;4.00;;
53010;SDS011;42803;55.762;38.084;2023-02-24T05:08:28;6.53;;;4.15;;
53010;SDS011;42803;55.762;38.084;2023-02-24T05:10:58;10.65;;;3.90;;
53010;SDS011;42803;55.762;38.084;2023-02-24T05:13:30;11.65;;;4.95;;
53010;SDS011;42803;55.762;38.084;2023-02-24T05:16:04;12.50;;;4.32;;
53010;SDS011;42803;55.762;38.084;2023-02-24T05:18:34;15.52;;;4.88;;
53010;SDS011;42803;55.762;38.084;2023-02-24T05:21:05;8.57;;;4.13;;
53010;SDS011;42803;55.762;38.084;2023-02-24T05:23:54;6.55;;;3.85;;
53010;SDS011;42803;55.762;38.084;2023-02-24T05:26:25;7.78;;;3.78;;
53010;SDS011;42803;55.762;38.084;2023-02-24T05:28:58;5.68;;;3.70;;
53010;SDS011;42803;55.762;38.084;2023-02-24T05:31:28;9.73;;;4.03;;
53010;SDS011;42803;55.762;38.084;2023-02-24T05:33:59;12.50;;;3.55;;
53010;SDS011;42803;55.762;38.084;2023-02-24T05:36:30;18.85;;;4.85;;
53010;SDS011;42803;55.762;38.084;2023-02-24T05:39:03;14.90;;;4.85;;
53010;SDS011;42803;55.762;38.084;2023-02-24T05:41:34;10.80;;;4.60;;
53010;SDS011;42803;55.762;38.084;2023-02-24T05:44:06;9.65;;;4.97;;
53010;SDS011;42803;55.762;38.084;2023-02-24T05:46:42;6.53;;;3.88;;
53010;SDS011;42803;55.762;38.084;2023-02-24T05:49:13;7.68;;;4.07;;
53010;SDS011;42803;55.762;38.084;2023-02-24T05:51:47;16.63;;;5.38;;
53010;SDS011;42803;55.762;38.084;2023-02-24T05:54:23;7.10;;;4.40;;
53010;SDS011;42803;55.762;38.084;2023-02-24T05:56:57;9.75;;;4.35;;
53010;SDS011;42803;55.762;38.084;2023-02-24T05:59:31;7.68;;;4.28;;
53010;SDS011;42803;55.762;38.084;2023-02-24T06:02:01;13.82;;;4.97;;
53010;SDS011;42803;55.762;38.084;2023-02-24T06:04:34;11.45;;;5.25;;
53010;SDS011;42803;55.762;38.084;2023-02-24T06:07:09;11.02;;;4.70;;
53010;SDS011;42803;55.762;38.084;2023-02-24T06:09:47;12.38;;;4.32;;
53010;SDS011;42803;55.762;38.084;2023-02-24T06:12:17;14.82;;;5.10;;
53010;SDS011;42803;55.762;38.084;2023-02-24T06:14:47;13.13;;;4.50;;
53010;SDS011;42803;55.762;38.084;2023-02-24T06:17:16;14.90;;;4.55;;
53010;SDS011;42803;55.762;38.084;2023-02-24T06:19:48;10.70;;;3.75;;
53010;SDS011;42803;55.762;38.084;2023-02-24T06:22:19;10.38;;;4.45;;
53010;SDS011;42803;55.762;38.084;2023-02-24T06:24:51;12.40;;;5.82;;
53010;SDS011;42803;55.762;38.084;2023-02-24T06:27:21;10.25;;;4.65;;
53010;SDS011;42803;55.762;38.084;2023-02-24T06:29:52;11.80;;;4.95;;
53010;SDS011;42803;55.762;38.084;2023-02-24T06:32:24;12.65;;;5.75;;
53010;SDS011;42803;55.762;38.084;2023-02-24T06:34:54;11.38;;;4.30;;
53010;SDS011;42803;55.762;38.084;2023-02-24T06:37:25;11.88;;;5.60;;
53010;SDS011;42803;55.762;38.084;2023-02-24T06:39:58;13.60;;;5.78;;
53010;SDS011;42803;55.762;38.084;2023-02-24T06:42:29;11.15;;;4.65;;
53010;SDS011;42803;55.762;38.084;2023-02-24T06:44:59;9.88;;;4.07;;
53010;SDS011;42803;55.762;38.084;2023-02-24T06:47:29;18.90;;;4.85;;
53010;SDS011;42803;55.762;38.084;2023-02-24T06:49:58;11.70;;;5.85;;
53010;SDS011;42803;55.762;38.084;2023-02-24T06:52:28;14.27;;;5.60;;
53010;SDS011;42803;55.762;38.084;2023-02-24T06:54:59;12.73;;;6.18;;
53010;SDS011;42803;55.762;38.084;2023-02-24T06:57:31;18.50;;;6.78;;
53010;SDS011;42803;55.762;38.084;2023-02-24T07:00:00;12.70;;;5.22;;
53010;SDS011;42803;55.762;38.084;2023-02-24T07:02:43;12.88;;;5.28;;
53010;SDS011;42803;55.762;38.084;2023-02-24T07:05:11;15.82;;;5.90;;
53010;SDS011;42803;55.762;38.084;2023-02-24T07:07:43;13.80;;;5.63;;
53010;SDS011;42803;55.762;38.084;2023-02-24T07:10:14;13.73;;;6.00;;
53010;SDS011;42803;55.762;38.084;2023-02-24T07:12:44;16.00;;;5.65;;
53010;SDS011;42803;55.762;38.084;2023-02-24T07:15:13;13.88;;;6.60;;
53010;SDS011;42803;55.762;38.084;2023-02-24T07:17:44;16.13;;;6.05;;
53010;SDS011;42803;55.762;38.084;2023-02-24T07:20:14;13.05;;;5.90;;
53010;SDS011;42803;55.762;38.084;2023-02-24T07:22:51;20.52;;;6.80;;
53010;SDS011;42803;55.762;38.084;2023-02-24T07:25:22;15.57;;;5.50;;
53010;SDS011;42803;55.762;38.084;2023-02-24T07:28:00;14.75;;;6.18;;
53010;SDS011;42803;55.762;38.084;2023-02-24T07:30:29;15.82;;;7.05;;
53010;SDS011;42803;55.762;38.084;2023-02-24T07:32:59;14.13;;;6.13;;
53010;SDS011;42803;55.762;38.084;2023-02-24T07:35:30;15.20;;;6.07;;
53010;SDS011;42803;55.762;38.084;2023-02-24T07:37:59;15.02;;;7.00;;
53010;SDS011;42803;55.762;38.084;2023-02-24T07:40:33;18.35;;;7.68;;
53010;SDS011;42803;55.762;38.084;2023-02-24T07:43:02;16.95;;;7.57;;
53010;SDS011;42803;55.762;38.084;2023-02-24T07:45:32;19.50;;;6.15;;
53010;SDS011;42803;55.762;38.084;2023-02-24T07:48:05;18.98;;;7.13;;
53010;SDS011;42803;55.762;38.084;2023-02-24T07:50:34;16.02;;;6.15;;
53010;SDS011;42803;55.762;38.084;2023-02-24T07:53:04;18.40;;;7.25;;
53010;SDS011;42803;55.762;38.084;2023-02-24T07:55:35;16.00;;;6.07;;
53010;SDS011;42803;55.762;38.084;2023-02-24T07:58:04;16.08;;;6.55;;
53010;SDS011;42803;55.762;38.084;2023-02-24T08:00:33;16.10;;;7.22;;
53010;SDS011;42803;55.762;38.084;2023-02-24T08:03:16;16.73;;;7.43;;
53010;SDS011;42803;55.762;38.084;2023-02-24T08:05:46;16.10;;;6.70;;
53010;SDS011;42803;55.762;38.084;2023-02-24T08:08:15;12.15;;;5.55;;
53010;SDS011;42803;55.762;38.084;2023-02-24T08:10:48;13.45;;;5.93;;
53010;SDS011;42803;55.762;38.084;2023-02-24T08:13:22;18.55;;;7.75;;
53010;SDS011;42803;55.762;38.084;2023-02-24T08:15:51;18.20;;;7.75;;
53010;SDS011;42803;55.762;38.084;2023-02-24T08:18:22;23.23;;;9.15;;
53010;SDS011;42803;55.762;38.084;2023-02-24T08:20:54;13.65;;;6.93;;
53010;SDS011;42803;55.762;38.084;2023-02-24T08:23:30;16.27;;;6.65;;
53010;SDS011;42803;55.762;38.084;2023-02-24T08:26:12;14.18;;;6.90;;
53010;SDS011;42803;55.762;38.084;2023-02-24T08:28:42;17.27;;;7.90;;
53010;SDS011;42803;55.762;38.084;2023-02-24T08:31:11;22.70;;;9.10;;
53010;SDS011;42803;55.762;38.084;2023-02-24T08:33:40;15.48;;;7.13;;
53010;SDS011;42803;55.762;38.084;2023-02-24T08:36:09;15.40;;;6.75;;
53010;SDS011;42803;55.762;38.084;2023-02-24T08:38:39;16.83;;;7.15;;
53010;SDS011;42803;55.762;38.084;2023-02-24T08:41:13;16.60;;;7.20;;
53010;SDS011;42803;55.762;38.084;2023-02-24T08:43:47;12.40;;;5.30;;
53010;SDS011;42803;55.762;38.084;2023-02-24T08:46:17;14.60;;;5.50;;
53010;SDS011;42803;55.762;38.084;2023-02-24T08:48:53;12.93;;;6.53;;
53010;SDS011;42803;55.762;38.084;2023-02-24T08:51:24;24.35;;;7.43;;
53010;SDS011;42803;55.762;38.084;2023-02-24T08:53:56;16.67;;;7.72;;
53010;SDS011;42803;55.762;38.084;2023-02-24T08:56:29;13.43;;;5.93;;
53010;SDS011;42803;55.762;38.084;2023-02-24T08:59:02;15.10;;;6.43;;
53010;SDS011;42803;55.762;38.084;2023-02-24T09:01:33;13.63;;;6.93;;
53010;SDS011;42803;55.762;38.084;2023-02-24T09:04:05;19.10;;;7.80;;
53010;SDS011;42803;55.762;38.084;2023-02-24T09:06:39;13.75;;;6.13;;
53010;SDS011;42803;55.762;38.084;2023-02-24T09:09:12;22.98;;;8.63;;
53010;SDS011;42803;55.762;38.084;2023-02-24T09:11:47;19.23;;;7.43;;
53010;SDS011;42803;55.762;38.084;2023-02-24T09:14:23;19.58;;;8.23;;
53010;SDS011;42803;55.762;38.084;2023-02-24T09:16:56;22.35;;;7.65;;
53010;SDS011;42803;55.762;38.084;2023-02-24T09:19:38;13.77;;;7.65;;
53010;SDS011;42803;55.762;38.084;2023-02-24T09:22:30;21.75;;;8.77;;
53010;SDS011;42803;55.762;38.084;2023-02-24T09:25:00;18.40;;;6.65;;
53010;SDS011;42803;55.762;38.084;2023-02-24T09:27:52;22.95;;;9.13;;
53010;SDS011;42803;55.762;38.084;2023-02-24T09:30:25;17.20;;;7.50;;
53010;SDS011;42803;55.762;38.084;2023-02-24T09:33:05;20.70;;;8.93;;
53010;SDS011;42803;55.762;38.084;2023-02-24T09:35:45;18.75;;;8.10;;
53010;SDS011;42803;55.762;38.084;2023-02-24T09:38:15;21.50;;;7.97;;
53010;SDS011;42803;55.762;38.084;2023-02-24T09:40:46;18.50;;;8.70;;
53010;SDS011;42803;55.762;38.084;2023-02-24T09:43:19;21.20;;;8.38;;
53010;SDS011;42803;55.762;38.084;2023-02-24T09:45:56;18.77;;;7.45;;
53010;SDS011;42803;55.762;38.084;2023-02-24T09:48:41;16.98;;;8.48;;
53010;SDS011;42803;55.762;38.084;2023-02-24T09:51:20;19.58;;;8.30;;
53010;SDS011;42803;55.762;38.084;2023-02-24T09:53:52;23.13;;;8.95;;
53010;SDS011;42803;55.762;38.084;2023-02-24T09:56:26;22.02;;;7.90;;
53010;SDS011;42803;55.762;38.084;2023-02-24T09:59:06;15.88;;;7.35;;
53010;SDS011;42803;55.762;38.084;2023-02-24T10:01:45;22.90;;;9.55;;
53010;SDS011;42803;55.762;38.084;2023-02-24T10:07:16;17.73;;;7.50;;
53010;SDS011;42803;55.762;38.084;2023-02-24T10:09:51;21.58;;;8.48;;
53010;SDS011;42803;55.762;38.084;2023-02-24T10:12:45;25.63;;;8.57;;
53010;SDS011;42803;55.762;38.084;2023-02-24T10:15:20;19.42;;;8.05;;
53010;SDS011;42803;55.762;38.084;2023-02-24T10:18:26;21.55;;;7.88;;
53010;SDS011;42803;55.762;38.084;2023-02-24T10:21:02;21.65;;;8.45;;
53010;SDS011;42803;55.762;38.084;2023-02-24T10:23:48;28.55;;;11.15;;
53010;SDS011;42803;55.762;38.084;2023-02-24T10:26:28;17.67;;;8.18;;
53010;SDS011;42803;55.762;38.084;2023-02-24T10:29:29;18.00;;;7.47;;
53010;SDS011;42803;55.762;38.084;2023-02-24T10:32:19;18.42;;;8.05;;
53010;SDS011;42803;55.762;38.084;2023-02-24T10:35:00;19.55;;;8.82;;
53010;SDS011;42803;55.762;38.084;2023-02-24T10:37:32;16.33;;;7.82;;
53010;SDS011;42803;55.762;38.084;2023-02-24T10:40:02;20.13;;;9.82;;
53010;SDS011;42803;55.762;38.084;2023-02-24T10:42:38;22.58;;;8.13;;
53010;SDS011;42803;55.762;38.084;2023-02-24T10:45:12;17.17;;;8.30;;
53010;SDS011;42803;55.762;38.084;2023-02-24T10:47:50;17.08;;;6.47;;
53010;SDS011;42803;55.762;38.084;2023-02-24T10:50:24;17.00;;;7.55;;
53010;SDS011;42803;55.762;38.084;2023-02-24T10:53:02;23.83;;;9.18;;
53010;SDS011;42803;55.762;38.084;2023-02-24T10:55:53;19.25;;;7.97;;
53010;SDS011;42803;55.762;38.084;2023-02-24T10:58:41;21.17;;;8.55;;
53010;SDS011;42803;55.762;38.084;2023-02-24T11:01:24;19.60;;;8.07;;
53010;SDS011;42803;55.762;38.084;2023-02-24T11:04:12;21.63;;;8.20;;
53010;SDS011;42803;55.762;38.084;2023-02-24T11:07:11;18.65;;;7.43;;
53010;SDS011;42803;55.762;38.084;2023-02-24T11:10:01;20.42;;;8.25;;
53010;SDS011;42803;55.762;38.084;2023-02-24T11:12:41;19.55;;;8.82;;
53010;SDS011;42803;55.762;38.084;2023-02-24T11:15:36;17.60;;;8.73;;
53010;SDS011;42803;55.762;38.084;2023-02-24T11:18:28;17.70;;;8.15;;
53010;SDS011;42803;55.762;38.084;2023-02-24T11:21:00;17.60;;;8.27;;
53010;SDS011;42803;55.762;38.084;2023-02-24T11:23:33;21.75;;;8.25;;
53010;SDS011;42803;55.762;38.084;2023-02-24T11:26:06;21.55;;;8.60;;
53010;SDS011;42803;55.762;38.084;2023-02-24T11:28:46;25.05;;;9.45;;
53010;SDS011;42803;55.762;38.084;2023-02-24T11:31:30;22.55;;;8.30;;
53010;SDS011;42803;55.762;38.084;2023-02-24T11:34:08;21.27;;;7.43;;
53010;SDS011;42803;55.762;38.084;2023-02-24T11:36:47;19.08;;;8.13;;
53010;SDS011;42803;55.762;38.084;2023-02-24T11:39:29;18.63;;;7.40;;
53010;SDS011;42803;55.762;38.084;2023-02-24T11:42:12;19.23;;;7.10;;
53010;SDS011;42803;55.762;38.084;2023-02-24T11:44:48;23.08;;;7.68;;
53010;SDS011;42803;55.762;38.084;2023-02-24T11:47:24;22.95;;;8.13;;
53010;SDS011;42803;55.762;38.084;2023-02-24T11:50:09;17.80;;;8.45;;
53010;SDS011;42803;55.762;38.084;2023-02-24T11:52:49;17.55;;;7.10;;
53010;SDS011;42803;55.762;38.084;2023-02-24T11:55:28;21.08;;;8.63;;
53010;SDS011;42803;55.762;38.084;2023-02-24T11:58:06;26.02;;;9.80;;
53010;SDS011;42803;55.762;38.084;2023-02-24T12:00:43;17.20;;;8.52;;
53010;SDS011;42803;55.762;38.084;2023-02-24T12:03:22;24.02;;;9.32;;
53010;SDS011;42803;55.762;38.084;2023-02-24T12:06:00;19.38;;;9.40;;
53010;SDS011;42803;55.762;38.084;2023-02-24T12:08:38;18.90;;;8.82;;
53010;SDS011;42803;55.762;38.084;2023-02-24T12:11:13;20.10;;;9.48;;
53010;SDS011;42803;55.762;38.084;2023-02-24T12:13:51;21.30;;;8.45;;
53010;SDS011;42803;55.762;38.084;2023-02-24T12:16:27;32.08;;;10.98;;
53010;SDS011;42803;55.762;38.084;2023-02-24T12:19:01;23.58;;;9.65;;
53010;SDS011;42803;55.762;38.084;2023-02-24T12:21:34;22.38;;;9.27;;
53010;SDS011;42803;55.762;38.084;2023-02-24T12:24:08;22.17;;;9.23;;
53010;SDS011;42803;55.762;38.084;2023-02-24T12:26:41;19.90;;;9.20;;
53010;SDS011;42803;55.762;38.084;2023-02-24T12:29:32;20.90;;;8.82;;
53010;SDS011;42803;55.762;38.084;2023-02-24T12:32:18;27.88;;;9.35;;
53010;SDS011;42803;55.762;38.084;2023-02-24T12:35:00;17.00;;;7.50;;
53010;SDS011;42803;55.762;38.084;2023-02-24T12:37:43;24.70;;;9.88;;
53010;SDS011;42803;55.762;38.084;2023-02-24T12:40:25;24.67;;;9.90;;
53010;SDS011;42803;55.762;38.084;2023-02-24T12:43:03;19.58;;;8.73;;
53010;SDS011;42803;55.762;38.084;2023-02-24T12:45:50;23.73;;;9.80;;
53010;SDS011;42803;55.762;38.084;2023-02-24T12:48:49;17.80;;;7.57;;
53010;SDS011;42803;55.762;38.084;2023-02-24T12:51:39;19.33;;;7.20;;
53010;SDS011;42803;55.762;38.084;2023-02-24T12:54:18;20.98;;;9.05;;
53010;SDS011;42803;55.762;38.084;2023-02-24T12:56:54;18.43;;;8.03;;
53010;SDS011;42803;55.762;38.084;2023-02-24T12:59:31;19.30;;;8.13;;
53010;SDS011;42803;55.762;38.084;2023-02-24T13:02:06;20.75;;;9.80;;
53010;SDS011;42803;55.762;38.084;2023-02-24T13:04:48;24.20;;;10.23;;
53010;SDS011;42803;55.762;38.084;2023-02-24T13:07:29;20.13;;;9.43;;
53010;SDS011;42803;55.762;38.084;2023-02-24T13:10:11;21.73;;;8.63;;
53010;SDS011;42803;55.762;38.084;2023-02-24T13:12:51;16.17;;;7.60;;
53010;SDS011;42803;55.762;38.084;2023-02-24T13:15:33;21.40;;;9.30;;
53010;SDS011;42803;55.762;38.084;2023-02-24T13:18:03;18.10;;;7.75;;
53010;SDS011;42803;55.762;38.084;2023-02-24T13:20:33;22.20;;;9.18;;
53010;SDS011;42803;55.762;38.084;2023-02-24T13:23:16;20.50;;;8.60;;
53010;SDS011;42803;55.762;38.084;2023-02-24T13:25:49;20.83;;;9.85;;
53010;SDS011;42803;55.762;38.084;2023-02-24T13:28:23;23.17;;;11.13;;
53010;SDS011;42803;55.762;38.084;2023-02-24T13:30:57;23.93;;;9.57;;
53010;SDS011;42803;55.762;38.084;2023-02-24T13:33:28;20.77;;;9.20;;
53010;SDS011;42803;55.762;38.084;2023-02-24T13:36:10;23.67;;;10.32;;
53010;SDS011;42803;55.762;38.084;2023-02-24T13:38:43;21.15;;;8.52;;
53010;SDS011;42803;55.762;38.084;2023-02-24T13:41:22;32.45;;;10.18;;
53010;SDS011;42803;55.762;38.084;2023-02-24T13:50:12;22.42;;;9.90;;
53010;SDS011;42803;55.762;38.084;2023-02-24T13:55:33;21.00;;;7.82;;
53010;SDS011;42803;55.762;38.084;2023-02-24T13:58:21;24.33;;;11.68;;
53010;SDS011;42803;55.762;38.084;2023-02-24T14:01:12;23.25;;;11.75;;
53010;SDS011;42803;55.762;38.084;2023-02-24T14:03:45;27.50;;;11.85;;
53010;SDS011;42803;55.762;38.084;2023-02-24T14:06:30;27.25;;;12.60;;
53010;SDS011;42803;55.762;38.084;2023-02-24T14:09:00;31.67;;;11.27;;
53010;SDS011;42803;55.762;38.084;2023-02-24T14:11:33;25.00;;;11.07;;
53010;SDS011;42803;55.762;38.084;2023-02-24T14:14:04;20.70;;;9.15;;
53010;SDS011;42803;55.762;38.084;2023-02-24T14:16:34;23.63;;;9.35;;
53010;SDS011;42803;55.762;38.084;2023-02-24T14:19:11;20.52;;;9.05;;
53010;SDS011;42803;55.762;38.084;2023-02-24T14:21:47;21.95;;;8.80;;
53010;SDS011;42803;55.762;38.084;2023-02-24T14:24:18;19.02;;;8.27;;
53010;SDS011;42803;55.762;38.084;2023-02-24T14:26:49;22.40;;;9.25;;
53010;SDS011;42803;55.762;38.084;2023-02-24T14:29:20;22.73;;;8.32;;
53010;SDS011;42803;55.762;38.084;2023-02-24T14:31:52;25.92;;;10.25;;
53010;SDS011;42803;55.762;38.084;2023-02-24T14:34:25;23.63;;;11.43;;
53010;SDS011;42803;55.762;38.084;2023-02-24T14:36:57;24.80;;;9.60;;
53010;SDS011;42803;55.762;38.084;2023-02-24T14:39:30;29.17;;;11.45;;
53010;SDS011;42803;55.762;38.084;2023-02-24T14:42:09;26.58;;;9.80;;
53010;SDS011;42803;55.762;38.084;2023-02-24T14:44:41;27.30;;;10.85;;
53010;SDS011;42803;55.762;38.084;2023-02-24T14:47:13;28.67;;;12.02;;
53010;SDS011;42803;55.762;38.084;2023-02-24T14:49:52;26.20;;;11.77;;
53010;SDS011;42803;55.762;38.084;2023-02-24T14:52:27;31.80;;;12.38;;
53010;SDS011;42803;55.762;38.084;2023-02-24T14:55:04;31.20;;;13.43;;
53010;SDS011;42803;55.762;38.084;2023-02-24T14:57:41;37.13;;;14.82;;
53010;SDS011;42803;55.762;38.084;2023-02-24T15:00:16;35.90;;;14.35;;
53010;SDS011;42803;55.762;38.084;2023-02-24T15:02:52;29.90;;;13.13;;
53010;SDS011;42803;55.762;38.084;2023-02-24T15:05:33;32.45;;;12.18;;
53010;SDS011;42803;55.762;38.084;2023-02-24T15:08:15;27.02;;;11.57;;
53010;SDS011;42803;55.762;38.084;2023-02-24T15:10:58;32.53;;;12.82;;
53010;SDS011;42803;55.762;38.084;2023-02-24T15:13:28;24.75;;;10.43;;
53010;SDS011;42803;55.762;38.084;2023-02-24T15:16:06;24.70;;;9.02;;
53010;SDS011;42803;55.762;38.084;2023-02-24T15:18:40;32.40;;;11.73;;
53010;SDS011;42803;55.762;38.084;2023-02-24T15:21:18;21.90;;;10.85;;
53010;SDS011;42803;55.762;38.084;2023-02-24T15:23:57;23.83;;;10.77;;
53010;SDS011;42803;55.762;38.084;2023-02-24T15:26:28;35.65;;;11.27;;
53010;SDS011;42803;55.762;38.084;2023-02-24T15:29:11;26.58;;;10.73;;
53010;SDS011;42803;55.762;38.084;2023-02-24T15:31:45;30.52;;;11.85;;